Time;durP1;ratioP1;P1;durP2;ratioP2;P2;SDS_P1;SDS_P2;PMS_P1;PMS_P2;Temp;Humidity;BMP_temperature;BMP_pressure;BME280_temperature;BME280_humidity;BME280_pressure;Samples;Min_cycle;Max_cycle;Signal;HPM_P1;HPM_P2
2023/07/07 00:01:20;;;;;;;11.15;4.43;;;;;;;;;;4988852;28;20124;-63
2023/07/07 00:03:50;;;;;;;8.00;3.90;;;;;;;;;;4985735;28;20153;-62
2023/07/07 00:06:21;;;;;;;7.28;3.05;;;;;;;;;;4985067;28;20137;-63
2023/07/07 00:08:50;;;;;;;6.10;2.97;;;;;;;;;;4985094;28;20046;-63
2023/07/07 00:11:18;;;;;;;6.15;2.85;;;;;;;;;;4988593;28;20041;-61
2023/07/07 00:13:47;;;;;;;9.48;3.20;;;;;;;;;;4984511;28;20122;-62
2023/07/07 00:16:15;;;;;;;9.32;3.83;;;;;;;;;;4985569;28;20459;-62
2023/07/07 00:18:44;;;;;;;9.48;3.60;;;;;;;;;;4978532;28;20090;-63
2023/07/07 00:21:14;;;;;;;9.68;3.28;;;;;;;;;;4980611;28;20417;-67
2023/07/07 00:23:42;;;;;;;10.23;3.38;;;;;;;;;;4984443;28;20045;-65
2023/07/07 00:26:11;;;;;;;10.75;3.55;;;;;;;;;;4985565;28;20042;-65
2023/07/07 00:28:39;;;;;;;8.40;3.58;;;;;;;;;;4979159;28;20058;-61
2023/07/07 00:31:08;;;;;;;6.03;3.22;;;;;;;;;;4983228;28;20176;-63
2023/07/07 00:33:36;;;;;;;7.47;3.20;;;;;;;;;;4983427;28;20046;-64
2023/07/07 00:36:05;;;;;;;6.90;3.38;;;;;;;;;;4981518;28;20466;-62
2023/07/07 00:38:35;;;;;;;10.77;3.70;;;;;;;;;;4982789;28;20104;-68
2023/07/07 00:41:05;;;;;;;6.45;3.35;;;;;;;;;;4981859;28;21248;-62
2023/07/07 00:43:33;;;;;;;7.88;2.85;;;;;;;;;;4984627;28;20049;-61
2023/07/07 00:46:02;;;;;;;6.85;3.50;;;;;;;;;;4981194;28;20046;-63
2023/07/07 00:48:33;;;;;;;9.43;3.33;;;;;;;;;;4979822;28;20472;-63
2023/07/07 00:51:03;;;;;;;6.18;2.95;;;;;;;;;;4980769;28;20113;-66
2023/07/07 00:53:32;;;;;;;5.88;2.80;;;;;;;;;;4987619;28;20046;-62
2023/07/07 00:56:03;;;;;;;7.45;2.95;;;;;;;;;;4979519;28;21620;-65
2023/07/07 00:58:32;;;;;;;6.60;3.42;;;;;;;;;;4977659;28;20392;-60
2023/07/07 01:01:01;;;;;;;5.22;2.88;;;;;;;;;;4980393;28;20129;-61
2023/07/07 01:03:33;;;;;;;7.07;3.17;;;;;;;;;;5003840;22;20046;-65
2023/07/07 01:06:06;;;;;;;4.47;2.70;;;;;;;;;;4975920;28;22393;-64
2023/07/07 01:08:35;;;;;;;8.77;3.80;;;;;;;;;;4975590;28;20050;-64
2023/07/07 01:11:05;;;;;;;8.82;3.20;;;;;;;;;;4974250;28;20453;-65
2023/07/07 01:13:34;;;;;;;7.25;3.17;;;;;;;;;;4974042;28;20531;-64
2023/07/07 01:16:05;;;;;;;6.00;2.80;;;;;;;;;;4978196;28;20065;-64
2023/07/07 01:18:39;;;;;;;5.25;2.90;;;;;;;;;;4972690;28;20039;-65
2023/07/07 01:21:12;;;;;;;5.03;2.50;;;;;;;;;;4975660;28;20050;-65
2023/07/07 01:23:57;;;;;;;6.28;2.80;;;;;;;;;;4978611;28;20112;-65
2023/07/07 01:26:38;;;;;;;6.72;2.83;;;;;;;;;;4975842;28;20116;-64
2023/07/07 01:29:14;;;;;;;6.80;2.80;;;;;;;;;;4979761;28;20133;-64
2023/07/07 01:31:47;;;;;;;6.75;2.95;;;;;;;;;;4976173;28;20894;-64
2023/07/07 01:34:17;;;;;;;7.32;3.17;;;;;;;;;;4973235;28;20824;-64
2023/07/07 01:36:45;;;;;;;11.35;3.90;;;;;;;;;;4978001;28;20205;-64
2023/07/07 01:39:14;;;;;;;7.82;2.80;;;;;;;;;;4978488;28;20051;-64
2023/07/07 01:41:47;;;;;;;7.80;3.80;;;;;;;;;;4978478;28;20183;-65
2023/07/07 01:44:18;;;;;;;7.53;3.10;;;;;;;;;;4973095;28;20081;-64
2023/07/07 01:46:51;;;;;;;5.97;3.15;;;;;;;;;;4976515;28;20074;-65
2023/07/07 01:49:21;;;;;;;9.25;3.45;;;;;;;;;;4977864;28;20093;-65
2023/07/07 01:51:58;;;;;;;5.30;2.63;;;;;;;;;;4978687;28;20058;-65
2023/07/07 01:54:27;;;;;;;9.45;3.40;;;;;;;;;;4977438;28;20093;-65
2023/07/07 01:56:56;;;;;;;5.00;2.53;;;;;;;;;;4977752;28;20751;-64
2023/07/07 01:59:25;;;;;;;5.40;2.70;;;;;;;;;;4973975;28;20065;-65
2023/07/07 02:01:55;;;;;;;4.90;2.58;;;;;;;;;;4975106;28;20108;-65
2023/07/07 02:04:24;;;;;;;7.20;3.00;;;;;;;;;;4974639;28;20073;-65
2023/07/07 02:06:52;;;;;;;6.38;2.72;;;;;;;;;;4978649;28;20085;-64
2023/07/07 02:09:21;;;;;;;5.90;2.53;;;;;;;;;;4979566;28;20397;-65
2023/07/07 02:11:50;;;;;;;8.05;2.70;;;;;;;;;;4976417;28;20050;-65
2023/07/07 02:14:18;;;;;;;6.95;2.80;;;;;;;;;;4976833;28;20475;-64
2023/07/07 02:16:49;;;;;;;6.18;2.60;;;;;;;;;;4980921;28;20550;-64
2023/07/07 02:19:19;;;;;;;5.97;3.17;;;;;;;;;;4982056;28;20051;-65
2023/07/07 02:21:48;;;;;;;5.28;2.78;;;;;;;;;;4977659;28;20069;-64
2023/07/07 02:24:16;;;;;;;9.07;3.30;;;;;;;;;;4977527;28;20185;-65
2023/07/07 02:26:44;;;;;;;7.13;3.47;;;;;;;;;;4983165;28;20105;-65
2023/07/07 02:29:13;;;;;;;5.22;2.53;;;;;;;;;;4983354;28;20054;-64
2023/07/07 02:31:41;;;;;;;6.28;2.78;;;;;;;;;;4980086;28;20081;-65
2023/07/07 02:34:09;;;;;;;5.97;3.17;;;;;;;;;;4977521;28;20058;-65
2023/07/07 02:36:39;;;;;;;6.95;3.08;;;;;;;;;;4983210;28;20078;-65
2023/07/07 02:39:08;;;;;;;4.88;2.58;;;;;;;;;;4981984;28;20074;-64
2023/07/07 02:41:36;;;;;;;6.03;3.10;;;;;;;;;;4980096;28;20158;-65
2023/07/07 02:44:05;;;;;;;7.60;3.08;;;;;;;;;;4979790;28;20069;-65
2023/07/07 02:46:33;;;;;;;6.88;2.85;;;;;;;;;;4979584;28;20117;-66
2023/07/07 02:49:01;;;;;;;4.75;2.80;;;;;;;;;;4980870;28;20780;-65
2023/07/07 02:51:30;;;;;;;6.10;2.85;;;;;;;;;;4982093;28;20156;-64
2023/07/07 02:54:00;;;;;;;9.32;3.00;;;;;;;;;;4977989;28;20169;-64
2023/07/07 02:56:28;;;;;;;7.30;2.90;;;;;;;;;;4981429;28;20427;-64
2023/07/07 02:58:56;;;;;;;6.43;3.10;;;;;;;;;;4982158;28;20056;-64
2023/07/07 03:01:25;;;;;;;5.43;2.65;;;;;;;;;;4982579;28;20109;-65
2023/07/07 03:03:56;;;;;;;8.10;3.05;;;;;;;;;;4979680;28;20050;-64
2023/07/07 03:06:25;;;;;;;6.90;3.08;;;;;;;;;;4979796;28;20058;-65
2023/07/07 03:08:54;;;;;;;5.43;2.60;;;;;;;;;;4980370;28;20046;-64
2023/07/07 03:11:24;;;;;;;4.22;2.88;;;;;;;;;;4979504;28;20073;-64
2023/07/07 03:13:53;;;;;;;6.57;2.47;;;;;;;;;;4979314;28;20097;-65
2023/07/07 03:16:22;;;;;;;5.72;2.47;;;;;;;;;;4980540;28;20058;-64
2023/07/07 03:18:53;;;;;;;6.95;2.65;;;;;;;;;;4979135;28;20435;-64
2023/07/07 03:21:22;;;;;;;7.75;2.20;;;;;;;;;;4981503;28;20691;-65
2023/07/07 03:23:51;;;;;;;6.28;2.63;;;;;;;;;;4974622;28;20109;-65
2023/07/07 03:26:20;;;;;;;5.72;2.63;;;;;;;;;;4980406;28;20051;-64
2023/07/07 03:28:50;;;;;;;5.30;2.42;;;;;;;;;;4980849;28;20978;-64
2023/07/07 03:31:22;;;;;;;6.22;2.47;;;;;;;;;;4977791;28;20145;-64
2023/07/07 03:33:52;;;;;;;6.55;2.70;;;;;;;;;;4979219;28;20146;-64
2023/07/07 03:36:21;;;;;;;6.18;2.30;;;;;;;;;;4979188;28;20378;-63
2023/07/07 03:38:50;;;;;;;6.63;2.78;;;;;;;;;;4979128;28;20455;-65
2023/07/07 03:41:19;;;;;;;7.15;2.42;;;;;;;;;;4978104;28;20167;-65
2023/07/07 03:43:48;;;;;;;6.72;2.90;;;;;;;;;;4977666;28;20120;-64
2023/07/07 03:46:19;;;;;;;5.40;2.80;;;;;;;;;;4980320;28;20058;-64
2023/07/07 03:48:49;;;;;;;9.90;3.15;;;;;;;;;;4979205;28;20057;-64
2023/07/07 03:51:17;;;;;;;6.18;2.88;;;;;;;;;;4979224;28;20112;-64
2023/07/07 03:53:46;;;;;;;5.15;2.63;;;;;;;;;;4980352;28;20050;-64
2023/07/07 03:56:14;;;;;;;4.80;2.65;;;;;;;;;;4978372;28;20046;-64
2023/07/07 03:58:43;;;;;;;6.32;2.45;;;;;;;;;;4976146;28;20050;-64
2023/07/07 04:01:13;;;;;;;6.47;2.80;;;;;;;;;;4979059;28;20496;-65
2023/07/07 04:03:45;;;;;;;6.80;2.83;;;;;;;;;;4978810;28;20054;-65
2023/07/07 04:06:14;;;;;;;6.15;2.50;;;;;;;;;;4977184;28;20133;-65
2023/07/07 04:08:43;;;;;;;9.05;3.30;;;;;;;;;;4978832;28;20077;-65
2023/07/07 04:11:12;;;;;;;7.22;2.78;;;;;;;;;;4980627;28;20565;-64
2023/07/07 04:13:41;;;;;;;5.65;2.65;;;;;;;;;;4976553;28;20170;-64
2023/07/07 04:16:10;;;;;;;6.00;2.55;;;;;;;;;;4977760;28;20491;-64
2023/07/07 04:18:39;;;;;;;6.32;2.60;;;;;;;;;;4975852;28;20061;-65
2023/07/07 04:21:10;;;;;;;10.95;3.40;;;;;;;;;;4981453;28;20053;-65
2023/07/07 04:23:39;;;;;;;4.97;2.40;;;;;;;;;;4980021;28;20120;-64
2023/07/07 04:26:08;;;;;;;5.10;2.28;;;;;;;;;;4974770;28;20088;-65
2023/07/07 04:28:37;;;;;;;7.55;3.10;;;;;;;;;;4973623;28;20137;-65
2023/07/07 04:31:07;;;;;;;6.03;2.92;;;;;;;;;;4978064;28;20575;-65
2023/07/07 04:33:36;;;;;;;5.90;2.75;;;;;;;;;;4976384;28;20061;-65
2023/07/07 04:36:05;;;;;;;6.05;2.72;;;;;;;;;;4976262;28;20061;-65
2023/07/07 04:38:36;;;;;;;7.40;3.35;;;;;;;;;;4980576;28;20065;-64
2023/07/07 04:41:05;;;;;;;5.25;2.25;;;;;;;;;;4979760;28;20132;-65
2023/07/07 04:43:34;;;;;;;5.85;2.70;;;;;;;;;;4978764;28;20555;-64
2023/07/07 04:46:02;;;;;;;8.02;2.70;;;;;;;;;;4979821;28;20086;-65
2023/07/07 04:48:31;;;;;;;5.80;2.30;;;;;;;;;;4980408;28;20128;-64
2023/07/07 04:50:59;;;;;;;7.20;2.60;;;;;;;;;;4980712;28;20081;-64
2023/07/07 04:53:29;;;;;;;5.82;2.53;;;;;;;;;;4980395;28;20491;-64
2023/07/07 04:56:01;;;;;;;6.60;2.40;;;;;;;;;;4976229;28;20104;-65
2023/07/07 04:58:30;;;;;;;10.43;2.75;;;;;;;;;;4976340;28;20074;-65
2023/07/07 05:01:06;;;;;;;5.38;2.10;;;;;;;;;;4977071;28;20149;-64
2023/07/07 05:03:34;;;;;;;5.82;2.50;;;;;;;;;;4975205;28;20077;-64
2023/07/07 05:06:03;;;;;;;5.57;2.50;;;;;;;;;;4979831;28;20463;-64
2023/07/07 05:08:33;;;;;;;7.25;2.65;;;;;;;;;;4974595;28;20075;-64
2023/07/07 05:11:03;;;;;;;7.60;2.75;;;;;;;;;;4975385;28;20450;-64
2023/07/07 05:13:32;;;;;;;5.80;2.90;;;;;;;;;;4974890;28;20058;-64
2023/07/07 05:16:01;;;;;;;4.97;2.40;;;;;;;;;;4976497;28;20053;-64
2023/07/07 05:18:30;;;;;;;6.93;2.17;;;;;;;;;;4977763;28;20050;-64
2023/07/07 05:20:58;;;;;;;6.82;3.00;;;;;;;;;;4979949;28;20047;-64
2023/07/07 05:23:31;;;;;;;6.43;2.63;;;;;;;;;;4980705;28;20054;-64
2023/07/07 05:25:59;;;;;;;6.55;2.45;;;;;;;;;;4975976;28;20046;-63
2023/07/07 05:28:29;;;;;;;5.85;2.60;;;;;;;;;;4977235;28;20140;-65
2023/07/07 05:30:57;;;;;;;6.18;2.60;;;;;;;;;;4979238;28;20082;-64
2023/07/07 05:33:26;;;;;;;6.90;3.22;;;;;;;;;;4979030;28;20184;-64
2023/07/07 05:35:56;;;;;;;5.07;2.50;;;;;;;;;;4979684;28;20057;-64
2023/07/07 05:38:25;;;;;;;6.25;2.30;;;;;;;;;;4976408;28;20077;-64
2023/07/07 05:40:54;;;;;;;6.93;2.42;;;;;;;;;;4978125;28;20096;-64
2023/07/07 05:43:23;;;;;;;5.85;2.97;;;;;;;;;;4980043;28;20050;-64
2023/07/07 05:45:57;;;;;;;5.35;2.65;;;;;;;;;;4977638;28;20051;-64
2023/07/07 05:48:26;;;;;;;7.60;2.67;;;;;;;;;;4978821;28;20051;-64
2023/07/07 05:50:56;;;;;;;5.10;2.53;;;;;;;;;;4986965;28;20329;-64
2023/07/07 05:53:27;;;;;;;4.90;2.20;;;;;;;;;;4982913;28;20081;-64
2023/07/07 05:55:57;;;;;;;6.28;2.75;;;;;;;;;;4980108;28;20058;-65
2023/07/07 05:58:25;;;;;;;6.18;2.38;;;;;;;;;;4984613;28;20046;-64
2023/07/07 06:00:54;;;;;;;5.18;2.40;;;;;;;;;;4983351;28;20058;-64
2023/07/07 06:03:24;;;;;;;5.65;2.30;;;;;;;;;;4980886;28;20426;-64
2023/07/07 06:05:52;;;;;;;6.60;2.72;;;;;;;;;;4979793;28;20053;-64
2023/07/07 06:08:21;;;;;;;5.97;2.53;;;;;;;;;;4984573;28;20070;-65
2023/07/07 06:10:50;;;;;;;4.68;2.78;;;;;;;;;;4983332;28;20054;-64
2023/07/07 06:13:23;;;;;;;5.93;2.15;;;;;;;;;;4979990;28;20562;-65
2023/07/07 06:15:52;;;;;;;5.40;2.83;;;;;;;;;;4983687;28;20057;-65
2023/07/07 06:18:21;;;;;;;6.65;2.60;;;;;;;;;;4980618;28;20058;-65
2023/07/07 06:20:51;;;;;;;5.93;2.30;;;;;;;;;;4983934;28;20109;-64
2023/07/07 06:23:19;;;;;;;6.35;2.35;;;;;;;;;;4982587;28;20120;-65
2023/07/07 06:25:48;;;;;;;6.38;2.17;;;;;;;;;;4979273;28;20495;-64
2023/07/07 06:28:16;;;;;;;7.35;2.58;;;;;;;;;;4983089;28;20064;-65
2023/07/07 06:30:45;;;;;;;4.07;2.28;;;;;;;;;;4983562;28;20045;-65
2023/07/07 06:33:13;;;;;;;4.65;2.40;;;;;;;;;;4983920;28;20559;-65
2023/07/07 06:35:43;;;;;;;7.60;2.42;;;;;;;;;;4980122;28;20137;-65
2023/07/07 06:38:13;;;;;;;6.40;3.13;;;;;;;;;;4983892;28;20515;-64
2023/07/07 06:40:41;;;;;;;5.50;1.95;;;;;;;;;;4979171;28;20050;-65
2023/07/07 06:43:10;;;;;;;5.82;2.75;;;;;;;;;;4983233;28;20846;-65
2023/07/07 06:45:41;;;;;;;5.80;2.50;;;;;;;;;;4982010;28;20065;-65
2023/07/07 06:48:09;;;;;;;7.97;3.15;;;;;;;;;;4980941;28;20404;-67
2023/07/07 06:50:40;;;;;;;4.93;2.55;;;;;;;;;;4980572;28;20126;-65
2023/07/07 06:53:10;;;;;;;5.20;2.50;;;;;;;;;;4981285;28;20050;-66
2023/07/07 06:55:40;;;;;;;4.65;2.17;;;;;;;;;;4983112;28;20049;-65
2023/07/07 06:58:10;;;;;;;6.10;2.38;;;;;;;;;;4981588;28;20073;-66
2023/07/07 07:00:38;;;;;;;5.75;2.65;;;;;;;;;;4980768;28;20062;-66
2023/07/07 07:03:07;;;;;;;4.72;2.40;;;;;;;;;;4980983;28;20050;-66
2023/07/07 07:05:36;;;;;;;5.70;2.22;;;;;;;;;;4980607;28;20514;-65
2023/07/07 07:08:04;;;;;;;5.10;2.22;;;;;;;;;;4981100;28;20046;-66
2023/07/07 07:10:33;;;;;;;4.95;2.28;;;;;;;;;;4983187;28;20409;-66
2023/07/07 07:13:03;;;;;;;5.25;3.20;;;;;;;;;;4982916;28;20042;-66
2023/07/07 07:15:31;;;;;;;4.85;2.15;;;;;;;;;;4983455;28;20092;-65
2023/07/07 07:17:59;;;;;;;6.32;2.92;;;;;;;;;;4981387;28;20054;-65
2023/07/07 07:20:28;;;;;;;5.15;2.15;;;;;;;;;;4983164;28;20498;-66
2023/07/07 07:22:57;;;;;;;5.20;2.13;;;;;;;;;;4980605;28;20046;-65
2023/07/07 07:25:25;;;;;;;4.75;2.05;;;;;;;;;;4980990;28;20492;-65
2023/07/07 07:27:54;;;;;;;6.97;3.05;;;;;;;;;;4980143;28;20063;-65
2023/07/07 07:30:23;;;;;;;6.93;2.25;;;;;;;;;;4980251;28;20050;-65
2023/07/07 07:32:52;;;;;;;5.35;2.40;;;;;;;;;;4981356;28;20056;-65
2023/07/07 07:35:20;;;;;;;4.80;2.28;;;;;;;;;;4981271;28;20058;-66
2023/07/07 07:37:49;;;;;;;7.97;2.63;;;;;;;;;;4977891;28;20416;-66
2023/07/07 07:40:17;;;;;;;7.07;2.40;;;;;;;;;;4979848;28;20526;-65
2023/07/07 07:42:46;;;;;;;9.15;2.63;;;;;;;;;;4980385;28;20054;-66
2023/07/07 07:45:17;;;;;;;7.13;2.80;;;;;;;;;;4982578;28;20512;-65
2023/07/07 07:47:47;;;;;;;6.32;2.80;;;;;;;;;;4981321;28;20068;-64
2023/07/07 07:50:16;;;;;;;5.80;2.50;;;;;;;;;;4980289;28;20053;-65
2023/07/07 07:52:45;;;;;;;4.88;2.72;;;;;;;;;;4979461;28;20051;-66
2023/07/07 07:55:15;;;;;;;7.57;2.47;;;;;;;;;;4978535;28;20150;-65
2023/07/07 07:57:43;;;;;;;5.10;2.63;;;;;;;;;;4981726;28;20053;-66
2023/07/07 08:00:12;;;;;;;5.50;2.08;;;;;;;;;;4981108;28;20510;-65
2023/07/07 08:02:40;;;;;;;6.25;2.90;;;;;;;;;;4979241;28;20077;-67
2023/07/07 08:05:11;;;;;;;4.82;2.67;;;;;;;;;;4975630;28;20054;-66
2023/07/07 08:07:39;;;;;;;5.10;2.03;;;;;;;;;;4979360;28;20106;-66
2023/07/07 08:10:09;;;;;;;5.82;2.55;;;;;;;;;;4979019;28;20096;-67
2023/07/07 08:12:39;;;;;;;6.00;2.50;;;;;;;;;;4979318;28;20061;-65
2023/07/07 08:15:08;;;;;;;6.78;2.75;;;;;;;;;;4976702;28;20051;-66
2023/07/07 08:17:37;;;;;;;6.38;2.20;;;;;;;;;;4980331;28;20491;-66
2023/07/07 08:20:06;;;;;;;6.22;2.88;;;;;;;;;;4975273;28;20054;-66
2023/07/07 08:22:36;;;;;;;5.40;2.42;;;;;;;;;;4977899;28;20062;-66
2023/07/07 08:25:04;;;;;;;8.20;2.50;;;;;;;;;;4973172;28;20047;-65
2023/07/07 08:27:35;;;;;;;6.10;2.42;;;;;;;;;;4976486;28;20188;-66
2023/07/07 08:30:07;;;;;;;4.55;2.38;;;;;;;;;;4976380;28;20042;-66
2023/07/07 08:32:35;;;;;;;6.05;2.70;;;;;;;;;;4974265;28;20082;-66
2023/07/07 08:35:04;;;;;;;5.07;2.20;;;;;;;;;;4975654;28;20152;-65
2023/07/07 08:37:34;;;;;;;5.03;2.42;;;;;;;;;;4975201;28;20586;-66
2023/07/07 08:40:04;;;;;;;5.82;2.80;;;;;;;;;;4974817;28;20112;-66
2023/07/07 08:42:34;;;;;;;5.78;2.72;;;;;;;;;;4973132;28;20112;-66
2023/07/07 08:45:04;;;;;;;4.78;2.55;;;;;;;;;;4974290;28;20054;-66
2023/07/07 08:47:41;;;;;;;7.57;2.45;;;;;;;;;;4972893;28;20050;-66
2023/07/07 08:50:12;;;;;;;5.07;2.58;;;;;;;;;;4975911;28;20132;-66
2023/07/07 08:53:00;;;;;;;5.68;2.50;;;;;;;;;;4974494;28;20057;-66
2023/07/07 08:55:45;;;;;;;5.95;2.40;;;;;;;;;;4977047;28;20058;-66
2023/07/07 08:58:16;;;;;;;4.20;2.25;;;;;;;;;;4978435;28;20061;-66
2023/07/07 09:01:01;;;;;;;5.57;2.80;;;;;;;;;;4974818;28;20061;-67
2023/07/07 09:03:41;;;;;;;5.57;2.50;;;;;;;;;;4972181;28;20463;-66
2023/07/07 09:06:14;;;;;;;8.15;2.70;;;;;;;;;;4973710;28;20050;-65
2023/07/07 09:08:48;;;;;;;6.13;2.70;;;;;;;;;;4973331;28;20053;-66
2023/07/07 09:11:24;;;;;;;5.97;2.92;;;;;;;;;;4973821;28;20058;-66
2023/07/07 09:13:52;;;;;;;;;;;;;;;;;;4973414;28;20570;-66
2023/07/07 09:16:24;;;;;;;6.38;2.97;;;;;;;;;;4979660;28;20312;-65
2023/07/07 09:18:55;;;;;;;5.47;2.40;;;;;;;;;;4976844;28;20065;-66
2023/07/07 09:21:27;;;;;;;4.90;2.95;;;;;;;;;;4975433;28;20062;-66
2023/07/07 09:23:56;;;;;;;4.25;2.60;;;;;;;;;;4974873;28;20121;-66
2023/07/07 09:26:28;;;;;;;5.45;2.58;;;;;;;;;;4975371;28;20507;-67
2023/07/07 09:28:58;;;;;;;5.18;2.92;;;;;;;;;;4973211;28;20051;-67
2023/07/07 09:31:29;;;;;;;5.38;2.63;;;;;;;;;;4975575;28;20094;-66
2023/07/07 09:33:59;;;;;;;5.25;2.75;;;;;;;;;;4974095;28;20506;-66
2023/07/07 09:36:30;;;;;;;6.55;2.65;;;;;;;;;;4971469;28;20495;-66
2023/07/07 09:39:04;;;;;;;6.18;3.00;;;;;;;;;;4976893;28;20046;-66
2023/07/07 09:41:39;;;;;;;4.57;2.50;;;;;;;;;;4973924;28;20054;-67
2023/07/07 09:44:18;;;;;;;5.25;2.60;;;;;;;;;;4974343;28;20062;-67
2023/07/07 09:46:52;;;;;;;5.53;2.83;;;;;;;;;;4976009;28;20058;-66
2023/07/07 09:49:26;;;;;;;7.68;3.05;;;;;;;;;;4977979;28;20055;-67
2023/07/07 09:51:59;;;;;;;5.78;2.92;;;;;;;;;;4977494;28;20518;-66
2023/07/07 09:54:27;;;;;;;6.65;3.08;;;;;;;;;;4974428;28;20138;-68
2023/07/07 09:57:00;;;;;;;5.28;2.60;;;;;;;;;;4975059;28;20466;-67
2023/07/07 09:59:31;;;;;;;4.72;2.67;;;;;;;;;;4976276;28;20054;-68
2023/07/07 10:02:00;;;;;;;4.85;2.70;;;;;;;;;;4976985;28;20109;-68
2023/07/07 10:04:30;;;;;;;6.53;3.25;;;;;;;;;;4972957;28;20519;-68
2023/07/07 10:07:00;;;;;;;5.10;2.78;;;;;;;;;;4974018;28;20422;-67
2023/07/07 10:09:32;;;;;;;4.32;2.42;;;;;;;;;;4977234;28;20128;-68
2023/07/07 10:12:02;;;;;;;4.28;2.75;;;;;;;;;;4971768;28;20465;-67
2023/07/07 10:14:51;;;;;;;5.97;2.95;;;;;;;;;;4976200;28;20062;-67
2023/07/07 10:17:25;;;;;;;5.63;3.08;;;;;;;;;;4973909;28;20559;-67
2023/07/07 10:19:54;;;;;;;9.30;3.28;;;;;;;;;;4973464;28;20173;-67
2023/07/07 10:22:23;;;;;;;5.43;2.60;;;;;;;;;;4976041;28;20046;-66
2023/07/07 10:24:51;;;;;;;5.90;3.00;;;;;;;;;;4973473;28;20050;-67
2023/07/07 10:27:22;;;;;;;4.82;3.17;;;;;;;;;;4976143;28;21608;-67
2023/07/07 10:29:51;;;;;;;6.15;2.72;;;;;;;;;;4976301;28;20508;-66
2023/07/07 10:32:20;;;;;;;9.13;2.88;;;;;;;;;;4973299;28;20054;-66
2023/07/07 10:34:49;;;;;;;6.82;3.42;;;;;;;;;;4975207;28;20074;-67
2023/07/07 10:37:19;;;;;;;5.47;2.75;;;;;;;;;;4977657;28;20104;-69
2023/07/07 10:39:51;;;;;;;5.32;2.85;;;;;;;;;;4976486;28;20466;-68
2023/07/07 10:42:23;;;;;;;7.53;2.90;;;;;;;;;;4980411;28;20065;-68
2023/07/07 10:44:53;;;;;;;6.63;2.88;;;;;;;;;;4979063;28;20066;-69
2023/07/07 10:47:22;;;;;;;6.43;3.13;;;;;;;;;;4980134;28;20046;-68
2023/07/07 10:49:51;;;;;;;6.15;3.30;;;;;;;;;;4980328;28;20046;-69
2023/07/07 10:52:33;;;;;;;28.05;15.57;;;;;;;;;;4980721;28;20467;-67
2023/07/07 10:55:06;;;;;;;14.68;8.15;;;;;;;;;;4976238;28;20348;-67
2023/07/07 10:57:40;;;;;;;7.22;3.88;;;;;;;;;;4963845;28;20054;-67
2023/07/07 11:00:20;;;;;;;6.07;2.75;;;;;;;;;;4960034;28;20448;-67
2023/07/07 11:03:07;;;;;;;9.07;3.22;;;;;;;;;;4969006;28;20973;-67
2023/07/07 11:05:45;;;;;;;6.25;2.65;;;;;;;;;;4988539;28;20089;-69
2023/07/07 11:08:34;;;;;;;5.88;2.83;;;;;;;;;;4997692;28;20054;-67
2023/07/07 11:11:10;;;;;;;7.82;3.40;;;;;;;;;;5000001;28;20073;-68
2023/07/07 11:13:52;;;;;;;8.55;3.28;;;;;;;;;;4996218;28;20100;-68
2023/07/07 11:16:32;;;;;;;4.72;2.88;;;;;;;;;;5001329;28;20046;-68
2023/07/07 11:19:11;;;;;;;7.20;3.38;;;;;;;;;;5002986;28;20045;-69
2023/07/07 11:21:42;;;;;;;5.95;3.03;;;;;;;;;;5000954;28;20069;-68
2023/07/07 11:24:13;;;;;;;7.47;3.88;;;;;;;;;;5000790;28;20686;-69
2023/07/07 11:26:50;;;;;;;4.90;2.60;;;;;;;;;;4999199;28;20565;-68
2023/07/07 11:29:25;;;;;;;7.53;3.30;;;;;;;;;;4998925;28;20058;-69
2023/07/07 11:32:01;;;;;;;7.57;3.15;;;;;;;;;;5000289;28;20274;-68
2023/07/07 11:34:36;;;;;;;5.82;3.28;;;;;;;;;;4999451;28;20491;-69
2023/07/07 11:37:10;;;;;;;7.07;3.45;;;;;;;;;;5004731;28;21316;-69
2023/07/07 11:39:49;;;;;;;6.82;3.67;;;;;;;;;;5003102;28;20077;-69
2023/07/07 11:42:27;;;;;;;6.22;3.30;;;;;;;;;;5001334;28;20073;-68
2023/07/07 11:45:02;;;;;;;6.47;3.10;;;;;;;;;;5000512;28;20131;-68
2023/07/07 11:47:43;;;;;;;8.68;3.75;;;;;;;;;;5000787;28;20526;-68
2023/07/07 11:50:18;;;;;;;6.53;3.80;;;;;;;;;;4999512;28;20068;-68
2023/07/07 11:52:55;;;;;;;5.22;2.75;;;;;;;;;;5000611;28;21200;-69
2023/07/07 11:55:37;;;;;;;6.13;3.00;;;;;;;;;;4996365;28;20061;-68
2023/07/07 11:58:10;;;;;;;4.82;2.60;;;;;;;;;;4999547;28;20088;-67
2023/07/07 12:00:43;;;;;;;5.60;2.83;;;;;;;;;;4993715;28;20045;-68
2023/07/07 12:03:28;;;;;;;6.32;3.20;;;;;;;;;;4998195;28;20046;-68
2023/07/07 12:05:59;;;;;;;5.78;3.03;;;;;;;;;;4996402;28;21318;-69
2023/07/07 12:08:35;;;;;;;6.15;2.97;;;;;;;;;;4996561;28;20068;-69
2023/07/07 12:11:04;;;;;;;5.63;3.08;;;;;;;;;;4997800;28;20092;-69
2023/07/07 12:13:35;;;;;;;7.30;3.08;;;;;;;;;;4999939;28;20069;-68
2023/07/07 12:16:10;;;;;;;6.18;3.08;;;;;;;;;;5000347;28;20053;-69
2023/07/07 12:18:42;;;;;;;5.07;2.90;;;;;;;;;;4998215;28;20147;-71
2023/07/07 12:21:13;;;;;;;6.85;3.35;;;;;;;;;;4999773;28;20140;-72
2023/07/07 12:23:43;;;;;;;6.05;2.97;;;;;;;;;;4996731;28;20049;-71
2023/07/07 12:26:15;;;;;;;6.93;3.38;;;;;;;;;;4995501;28;20519;-68
2023/07/07 12:28:46;;;;;;;5.35;3.05;;;;;;;;;;4998357;28;20195;-70
2023/07/07 12:31:14;;;;;;;5.32;3.30;;;;;;;;;;4999484;28;20127;-68
2023/07/07 12:33:44;;;;;;;6.93;3.50;;;;;;;;;;5000494;28;20540;-68
2023/07/07 12:36:14;;;;;;;9.70;3.17;;;;;;;;;;4998013;28;20038;-68
2023/07/07 12:38:43;;;;;;;5.72;2.92;;;;;;;;;;5000853;28;20050;-68
2023/07/07 12:41:12;;;;;;;5.22;3.45;;;;;;;;;;5000993;28;20556;-68
2023/07/07 12:43:43;;;;;;;6.57;3.00;;;;;;;;;;5000185;28;20491;-69
2023/07/07 12:46:17;;;;;;;5.05;3.20;;;;;;;;;;4999137;28;20041;-68
2023/07/07 12:48:47;;;;;;;6.13;3.17;;;;;;;;;;5000758;28;20100;-68
2023/07/07 12:51:18;;;;;;;8.90;3.22;;;;;;;;;;5002752;28;20672;-69
2023/07/07 12:53:48;;;;;;;5.50;3.17;;;;;;;;;;4998735;28;20049;-69
2023/07/07 12:56:18;;;;;;;5.63;3.35;;;;;;;;;;5000938;28;20141;-69
2023/07/07 12:58:48;;;;;;;4.75;2.70;;;;;;;;;;4997439;28;21339;-69
2023/07/07 13:01:34;;;;;;;5.70;3.17;;;;;;;;;;4996832;28;20534;-68
2023/07/07 13:04:20;;;;;;;5.53;3.22;;;;;;;;;;4997708;28;20057;-69
2023/07/07 13:07:03;;;;;;;8.48;3.30;;;;;;;;;;4967334;28;20137;-70
2023/07/07 13:09:44;;;;;;;6.55;3.75;;;;;;;;;;4992370;28;20049;-68
2023/07/07 13:12:27;;;;;;;7.38;3.35;;;;;;;;;;4998167;28;20112;-68
2023/07/07 13:15:03;;;;;;;5.05;3.05;;;;;;;;;;4997556;28;20681;-68
2023/07/07 13:17:34;;;;;;;6.22;3.40;;;;;;;;;;4997611;28;20046;-68
2023/07/07 13:20:04;;;;;;;6.70;3.60;;;;;;;;;;4999671;28;20609;-68
2023/07/07 13:22:37;;;;;;;7.18;3.42;;;;;;;;;;4997812;28;20457;-68
2023/07/07 13:25:07;;;;;;;7.00;2.92;;;;;;;;;;4999780;28;20046;-68
2023/07/07 13:27:36;;;;;;;7.97;3.35;;;;;;;;;;4996784;28;20057;-68
2023/07/07 13:30:21;;;;;;;6.32;3.78;;;;;;;;;;4996203;28;20065;-69
2023/07/07 13:32:49;;;;;;;;;;;;;;;;;;4998004;28;20057;-69
2023/07/07 13:35:18;;;;;;;6.60;3.63;;;;;;;;;;4997397;28;19931;-68
2023/07/07 13:37:47;;;;;;;6.40;3.78;;;;;;;;;;4997433;28;20046;-68
2023/07/07 13:40:17;;;;;;;7.18;3.55;;;;;;;;;;4998318;28;20041;-68
2023/07/07 13:42:49;;;;;;;7.07;3.67;;;;;;;;;;4997970;28;20065;-69
2023/07/07 13:45:18;;;;;;;6.82;3.67;;;;;;;;;;4997728;28;20203;-68
2023/07/07 13:47:48;;;;;;;6.40;3.42;;;;;;;;;;4998327;28;20069;-68
2023/07/07 13:50:20;;;;;;;7.55;3.45;;;;;;;;;;4996649;28;20061;-70
2023/07/07 13:52:53;;;;;;;6.80;3.50;;;;;;;;;;4996980;28;20105;-69
2023/07/07 13:55:22;;;;;;;6.00;3.22;;;;;;;;;;4995885;28;20121;-69
2023/07/07 13:57:50;;;;;;;7.90;3.47;;;;;;;;;;4998217;28;20058;-69
2023/07/07 14:00:21;;;;;;;7.45;3.80;;;;;;;;;;4999216;28;20100;-68
2023/07/07 14:02:50;;;;;;;7.75;4.13;;;;;;;;;;4998727;28;20132;-71
2023/07/07 14:05:20;;;;;;;7.57;3.70;;;;;;;;;;4993903;28;20049;-69
2023/07/07 14:07:50;;;;;;;7.10;3.70;;;;;;;;;;4998429;28;20135;-68
2023/07/07 14:10:32;;;;;;;7.47;3.80;;;;;;;;;;5000784;28;20104;-68
2023/07/07 14:13:00;;;;;;;8.57;4.03;;;;;;;;;;5001877;28;20046;-69
2023/07/07 14:15:33;;;;;;;6.65;3.88;;;;;;;;;;4998392;28;20050;-69
2023/07/07 14:18:02;;;;;;;7.93;3.88;;;;;;;;;;5004872;28;20577;-69
2023/07/07 14:20:38;;;;;;;8.25;4.18;;;;;;;;;;5003203;28;20513;-69
2023/07/07 14:23:10;;;;;;;6.10;3.60;;;;;;;;;;5002518;28;20050;-70
2023/07/07 14:25:41;;;;;;;6.13;3.75;;;;;;;;;;5003418;28;20085;-70
2023/07/07 14:28:15;;;;;;;6.15;3.20;;;;;;;;;;5003725;28;20049;-70
2023/07/07 14:30:50;;;;;;;8.55;3.78;;;;;;;;;;5003208;28;20414;-69
2023/07/07 14:33:23;;;;;;;8.25;3.50;;;;;;;;;;5003421;28;20491;-69
2023/07/07 14:35:55;;;;;;;8.35;3.65;;;;;;;;;;5000356;28;20058;-69
2023/07/07 14:38:29;;;;;;;7.75;3.33;;;;;;;;;;5001608;28;20514;-71
2023/07/07 14:40:59;;;;;;;6.40;3.40;;;;;;;;;;5002181;28;20050;-70
2023/07/07 14:43:29;;;;;;;5.32;3.35;;;;;;;;;;5002250;28;20863;-70
2023/07/07 14:45:59;;;;;;;7.88;3.92;;;;;;;;;;4999228;28;20100;-70
2023/07/07 14:48:29;;;;;;;7.15;3.63;;;;;;;;;;5003112;28;20048;-69
2023/07/07 14:51:07;;;;;;;6.47;3.40;;;;;;;;;;4998973;28;20055;-69
2023/07/07 14:53:37;;;;;;;9.18;4.10;;;;;;;;;;5002594;28;20046;-69
2023/07/07 14:56:12;;;;;;;6.20;3.58;;;;;;;;;;4999166;28;20571;-69
2023/07/07 14:58:42;;;;;;;7.45;3.58;;;;;;;;;;5001158;28;20050;-69
2023/07/07 15:01:17;;;;;;;10.50;3.80;;;;;;;;;;4998198;28;20049;-69
2023/07/07 15:03:50;;;;;;;7.97;3.70;;;;;;;;;;4999732;28;20058;-69
2023/07/07 15:06:27;;;;;;;6.45;3.60;;;;;;;;;;4997730;28;20050;-69